createdAt,value
2019-03-08T00:00:21.710Z,98346.00
2019-03-08T00:02:54.911Z,98329.00
2019-03-08T00:05:28.823Z,98325.00
2019-03-08T00:08:00.564Z,98337.00
2019-03-08T00:10:32.152Z,98324.00
2019-03-08T00:13:05.339Z,98335.00
2019-03-08T00:15:37.137Z,98347.00
2019-03-08T00:18:08.809Z,98357.00
2019-03-08T00:20:41.418Z,98361.00
2019-03-08T00:23:12.932Z,98345.00
2019-03-08T00:25:44.458Z,98378.00
2019-03-08T00:28:16.176Z,98355.00
2019-03-08T00:30:47.915Z,98345.00
2019-03-08T00:33:19.418Z,98345.00
2019-03-08T00:35:51.138Z,98344.00
2019-03-08T00:38:22.661Z,98349.00
2019-03-08T00:40:54.143Z,98341.00
2019-03-08T00:43:25.643Z,98354.00
2019-03-08T00:45:57.134Z,98340.00
2019-03-08T00:48:29.622Z,98344.00
2019-03-08T00:51:01.094Z,98333.00
2019-03-08T00:53:32.579Z,98340.00
2019-03-08T00:56:04.054Z,98342.00
2019-03-08T00:58:37.377Z,98339.00
2019-03-08T01:01:10.854Z,98338.00
2019-03-08T01:03:42.509Z,98345.00
2019-03-08T01:06:14.349Z,98331.00
2019-03-08T01:08:46.003Z,98335.00
2019-03-08T01:11:17.519Z,98336.00
2019-03-08T01:13:49.204Z,98335.00
2019-03-08T01:16:20.751Z,98333.00
2019-03-08T01:18:52.209Z,98331.00
2019-03-08T01:21:25.044Z,98332.00
2019-03-08T01:23:56.679Z,98319.00
2019-03-08T01:26:29.512Z,98327.00
2019-03-08T01:29:01.059Z,98329.00
2019-03-08T01:31:34.520Z,98319.00
2019-03-08T01:34:06.005Z,98334.00
2019-03-08T01:36:37.472Z,98322.00
2019-03-08T01:39:09.220Z,98333.00
2019-03-08T01:41:40.760Z,98317.00
2019-03-08T01:44:15.098Z,98317.00
2019-03-08T01:46:46.690Z,98223.00
2019-03-08T01:49:18.288Z,98318.00
2019-03-08T01:51:49.954Z,98314.00
2019-03-08T01:54:21.533Z,98299.00
2019-03-08T01:56:53.040Z,98312.00
2019-03-08T01:59:24.519Z,98300.00
2019-03-08T02:01:57.288Z,98315.00
2019-03-08T02:04:29.858Z,98319.00
2019-03-08T02:07:01.430Z,98314.00
2019-03-08T02:09:52.496Z,98315.00
2019-03-08T02:12:24.232Z,98316.00
2019-03-08T02:14:55.942Z,98328.00
2019-03-08T02:17:27.578Z,98322.00
2019-03-08T02:19:59.309Z,98327.00
2019-03-08T02:22:31.030Z,98314.00
2019-03-08T02:25:02.502Z,98323.00
2019-03-08T02:27:33.983Z,98328.00
2019-03-08T02:30:07.188Z,98316.00
2019-03-08T02:32:38.742Z,98310.00
2019-03-08T02:35:10.797Z,98305.00
2019-03-08T02:37:53.676Z,98302.00
2019-03-08T02:40:35.372Z,98306.00
2019-03-08T02:43:14.326Z,98319.00
2019-03-08T02:45:45.755Z,98309.00
2019-03-08T02:48:17.284Z,98301.00
2019-03-08T02:50:48.765Z,98307.00
2019-03-08T02:53:20.381Z,98299.00
2019-03-08T02:55:51.800Z,98306.00
2019-03-08T02:58:23.250Z,98309.00
2019-03-08T03:00:54.694Z,98299.00
2019-03-08T03:03:27.377Z,98301.00
2019-03-08T03:06:00.901Z,98302.00
2019-03-08T03:08:32.490Z,98296.00
2019-03-08T03:11:07.774Z,98297.00
2019-03-08T03:13:39.268Z,98300.00
2019-03-08T03:16:10.684Z,98328.00
2019-03-08T03:18:42.154Z,98325.00
2019-03-08T03:21:13.640Z,98321.00
2019-03-08T03:23:45.082Z,98332.00
2019-03-08T03:26:16.556Z,98336.00
2019-03-08T03:28:48.025Z,98316.00
2019-03-08T03:31:19.445Z,98335.00
2019-03-08T03:33:50.946Z,98337.00
2019-03-08T03:36:22.372Z,98348.00
2019-03-08T03:38:53.838Z,98328.00
2019-03-08T03:41:25.316Z,98335.00
2019-03-08T03:43:57.108Z,98347.00
2019-03-08T03:46:28.541Z,98346.00
2019-03-08T03:49:00.034Z,98347.00
2019-03-08T03:51:31.829Z,98348.00
2019-03-08T03:54:03.306Z,98356.00
2019-03-08T03:56:34.748Z,98373.00
2019-03-08T03:59:06.222Z,98372.00
2019-03-08T04:01:45.033Z,98383.00
2019-03-08T04:04:16.518Z,98395.00
2019-03-08T04:06:47.954Z,98406.00
2019-03-08T04:09:19.400Z,98398.00
2019-03-08T04:11:50.828Z,98416.00
2019-03-08T04:14:22.494Z,98412.00
2019-03-08T04:16:53.918Z,98416.00
2019-03-08T04:19:25.391Z,98429.00
2019-03-08T04:21:56.834Z,98436.00
2019-03-08T04:24:28.294Z,98429.00
2019-03-08T04:26:59.832Z,98432.00
2019-03-08T04:29:31.303Z,98437.00
2019-03-08T04:32:02.730Z,98446.00
2019-03-08T04:34:34.295Z,98456.00
2019-03-08T04:37:05.781Z,98450.00
2019-03-08T04:39:37.264Z,98450.00
2019-03-08T04:42:08.733Z,98445.00
2019-03-08T04:44:40.183Z,98460.00
2019-03-08T04:47:11.690Z,98470.00
2019-03-08T04:49:43.283Z,98470.00
2019-03-08T04:52:15.849Z,98467.00
2019-03-08T04:54:47.860Z,98475.00
2019-03-08T04:57:19.608Z,98471.00
2019-03-08T04:59:51.154Z,98476.00
2019-03-08T05:02:22.881Z,98464.00
2019-03-08T05:04:54.554Z,98465.00
2019-03-08T05:07:26.034Z,98483.00
2019-03-08T05:09:57.496Z,98475.00
2019-03-08T05:12:30.961Z,98501.00
2019-03-08T05:15:02.455Z,98514.00
2019-03-08T05:17:34.995Z,98498.00
2019-03-08T05:20:07.073Z,98536.00
2019-03-08T05:22:38.537Z,98529.00
2019-03-08T05:25:10.204Z,98522.00
2019-03-08T05:27:42.998Z,98525.00
2019-03-08T05:30:15.071Z,98526.00
2019-03-08T05:32:46.575Z,98542.00
2019-03-08T05:35:18.118Z,98547.00
2019-03-08T05:37:49.599Z,98548.00
2019-03-08T05:40:21.059Z,98556.00
2019-03-08T05:42:52.491Z,98554.00
2019-03-08T05:45:24.133Z,98571.00
2019-03-08T05:47:55.591Z,98574.00
2019-03-08T05:50:27.317Z,98577.00
2019-03-08T05:52:58.765Z,98598.00
2019-03-08T05:55:30.313Z,98602.00
2019-03-08T05:58:01.801Z,98609.00
2019-03-08T06:00:35.361Z,98620.00
2019-03-08T06:03:06.730Z,98635.00
2019-03-08T06:05:38.249Z,98647.00
2019-03-08T06:08:10.101Z,98662.00
2019-03-08T06:10:41.584Z,98673.00
2019-03-08T06:13:13.015Z,98687.00
2019-03-08T06:15:45.141Z,98709.00
2019-03-08T06:18:16.639Z,98721.00
2019-03-08T06:20:48.102Z,98715.00
2019-03-08T06:23:26.278Z,98725.00
2019-03-08T06:25:57.899Z,98734.00
2019-03-08T06:28:29.394Z,98739.00
2019-03-08T06:31:00.957Z,98745.00
2019-03-08T06:33:32.495Z,98759.00
2019-03-08T06:36:07.149Z,98776.00
2019-03-08T06:38:38.990Z,98782.00
2019-03-08T06:41:10.562Z,98800.00
2019-03-08T06:43:42.051Z,98833.00
2019-03-08T06:46:13.559Z,98830.00
2019-03-08T06:48:44.998Z,98834.00
2019-03-08T06:51:16.625Z,98862.00
2019-03-08T06:53:48.120Z,98847.00
2019-03-08T06:56:19.553Z,98872.00
2019-03-08T06:59:15.701Z,98874.00
2019-03-08T07:01:47.181Z,98907.00
2019-03-08T07:04:18.659Z,98904.00
2019-03-08T07:06:50.073Z,98918.00
2019-03-08T07:09:27.428Z,98915.00
2019-03-08T07:11:58.920Z,98945.00
2019-03-08T07:14:30.371Z,98932.00
2019-03-08T07:17:01.907Z,98966.00
2019-03-08T07:19:40.775Z,98958.00
2019-03-08T07:22:12.691Z,98980.00
2019-03-08T07:25:16.322Z,98981.00
2019-03-08T07:28:22.429Z,98997.00
2019-03-08T07:31:12.062Z,99006.00
2019-03-08T07:34:11.681Z,99066.00
2019-03-08T07:37:02.367Z,99056.00
2019-03-08T07:39:55.501Z,99066.00
2019-03-08T07:42:45.086Z,99092.00
2019-03-08T07:45:38.645Z,99089.00
2019-03-08T07:48:28.629Z,99107.00
2019-03-08T07:51:20.862Z,99108.00
2019-03-08T07:54:13.714Z,99130.00
2019-03-08T07:57:09.429Z,99142.00
2019-03-08T07:59:55.728Z,99148.00
2019-03-08T08:02:52.210Z,99149.00
2019-03-08T08:06:12.295Z,99164.00
2019-03-08T08:09:13.044Z,99168.00
2019-03-08T08:12:06.654Z,99161.00
2019-03-08T08:15:15.526Z,99188.00
2019-03-08T08:18:08.840Z,99194.00
2019-03-08T08:21:07.207Z,99198.00
2019-03-08T08:24:03.941Z,99223.00
2019-03-08T08:26:54.408Z,99230.00
2019-03-08T08:30:00.729Z,99270.00
2019-03-08T08:32:54.316Z,99265.00
2019-03-08T08:36:00.541Z,99269.00
2019-03-08T08:38:51.356Z,99283.00
2019-03-08T08:42:00.679Z,99274.00
2019-03-08T08:44:41.674Z,99295.00
2019-03-08T08:47:38.204Z,99294.00
2019-03-08T08:50:27.531Z,99327.00
2019-03-08T08:53:07.795Z,99333.00
2019-03-08T08:55:45.472Z,99363.00
2019-03-08T08:58:46.488Z,99373.00
2019-03-08T09:01:35.751Z,99370.00
2019-03-08T09:04:22.674Z,99368.00
2019-03-08T09:07:19.293Z,99378.00
2019-03-08T09:10:08.426Z,99388.00
2019-03-08T09:13:11.280Z,99408.00
2019-03-08T09:16:01.735Z,99427.00
2019-03-08T09:18:49.701Z,99413.00
2019-03-08T09:21:31.698Z,99414.00
2019-03-08T09:24:08.897Z,99450.00
2019-03-08T09:26:59.666Z,99443.00
2019-03-08T09:29:49.526Z,99448.00
2019-03-08T09:32:42.824Z,99454.00
2019-03-08T09:35:32.414Z,99470.00
2019-03-08T09:38:14.518Z,99475.00
2019-03-08T09:41:05.195Z,99482.00
2019-03-08T09:44:14.098Z,99494.00
2019-03-08T09:47:07.904Z,99511.00
2019-03-08T09:49:57.220Z,99510.00
2019-03-08T09:52:54.550Z,99534.00
2019-03-08T09:55:45.229Z,99529.00
2019-03-08T09:58:38.666Z,99552.00
2019-03-08T10:01:27.962Z,99545.00
2019-03-08T10:04:14.571Z,99561.00
2019-03-08T10:06:55.434Z,99586.00
2019-03-08T10:09:41.893Z,99549.00
2019-03-08T10:12:19.977Z,99570.00
2019-03-08T10:15:02.951Z,99603.00
2019-03-08T10:17:56.798Z,99585.00
2019-03-08T10:20:55.314Z,99613.00
2019-03-08T10:23:33.846Z,99630.00
2019-03-08T10:26:13.086Z,99627.00
2019-03-08T10:29:06.478Z,99639.00
2019-03-08T10:32:03.177Z,99648.00
2019-03-08T10:34:45.165Z,99641.00
2019-03-08T10:37:38.399Z,99661.00
2019-03-08T10:40:30.279Z,99672.00
2019-03-08T10:43:07.348Z,99674.00
2019-03-08T10:46:00.580Z,99685.00
2019-03-08T10:48:48.122Z,99678.00
2019-03-08T10:51:33.250Z,99686.00
2019-03-08T10:54:29.164Z,99679.00
2019-03-08T10:57:47.355Z,99712.00
2019-03-08T11:00:28.770Z,99718.00
2019-03-08T11:03:16.850Z,99723.00
2019-03-08T11:05:55.051Z,99726.00
2019-03-08T11:08:44.864Z,99727.00
2019-03-08T11:11:36.725Z,99732.00
2019-03-08T11:14:44.451Z,99751.00
2019-03-08T11:17:36.808Z,99750.00
2019-03-08T11:20:28.781Z,99739.00
2019-03-08T11:23:35.960Z,99753.00
2019-03-08T11:26:29.681Z,99777.00
2019-03-08T11:29:20.010Z,99780.00
2019-03-08T11:32:22.829Z,99776.00
2019-03-08T11:35:08.145Z,99797.00
2019-03-08T11:37:44.363Z,99832.00
2019-03-08T11:40:27.395Z,99810.00
2019-03-08T11:43:16.265Z,99826.00
2019-03-08T11:46:21.199Z,99833.00
2019-03-08T11:49:19.782Z,99851.00
2019-03-08T11:52:10.714Z,99865.00
2019-03-08T11:54:56.039Z,99873.00
2019-03-08T11:57:47.025Z,99878.00
2019-03-08T12:00:41.351Z,99882.00
2019-03-08T12:03:32.273Z,99875.00
2019-03-08T12:06:36.083Z,99890.00
2019-03-08T12:09:47.159Z,99909.00
2019-03-08T12:12:42.657Z,99899.00
2019-03-08T12:15:41.181Z,99912.00
2019-03-08T12:18:37.595Z,99913.00
2019-03-08T12:21:49.421Z,99895.00
2019-03-08T12:24:45.709Z,99933.00
2019-03-08T12:27:39.501Z,99936.00
2019-03-08T12:30:31.256Z,99937.00
2019-03-08T12:33:22.095Z,99962.00
2019-03-08T12:36:11.633Z,99964.00
2019-03-08T12:39:06.399Z,99951.00
2019-03-08T12:42:01.040Z,99966.00
2019-03-08T12:44:43.125Z,99950.00
2019-03-08T12:47:29.005Z,99975.00
2019-03-08T12:50:19.430Z,99962.00
2019-03-08T12:53:12.449Z,99986.00
2019-03-08T12:56:03.419Z,99979.00
2019-03-08T12:58:58.931Z,99973.00
2019-03-08T13:01:52.699Z,99999.00
2019-03-08T13:04:53.051Z,99987.00
2019-03-08T13:07:33.156Z,100012.00
2019-03-08T13:10:12.119Z,99992.00
2019-03-08T13:12:58.282Z,100006.00
2019-03-08T13:15:32.915Z,99998.00
2019-03-08T13:18:04.535Z,100003.00
2019-03-08T13:20:38.913Z,100010.00
2019-03-08T13:23:14.171Z,100021.00
2019-03-08T13:25:50.552Z,100035.00
2019-03-08T13:28:22.371Z,100044.00
2019-03-08T13:30:55.882Z,100027.00
2019-03-08T13:33:28.726Z,100059.00
2019-03-08T13:36:00.745Z,100048.00
2019-03-08T13:38:32.624Z,100055.00
2019-03-08T13:41:04.836Z,100044.00
2019-03-08T13:43:39.510Z,100100.00
2019-03-08T13:46:11.643Z,100060.00
2019-03-08T13:48:43.796Z,100053.00
2019-03-08T13:51:17.210Z,100064.00
2019-03-08T13:54:13.756Z,99939.00
2019-03-08T13:56:47.903Z,100064.00
2019-03-08T13:59:24.837Z,100078.00
2019-03-08T14:01:57.725Z,100067.00
2019-03-08T14:04:29.468Z,100090.00
2019-03-08T14:07:03.167Z,100078.00
2019-03-08T14:09:38.426Z,100088.00
2019-03-08T14:12:13.883Z,100090.00
2019-03-08T14:14:45.683Z,100100.00
2019-03-08T14:17:17.828Z,100096.00
2019-03-08T14:19:50.034Z,100062.00
2019-03-08T14:22:40.243Z,100112.00
2019-03-08T14:25:32.422Z,100106.00
2019-03-08T14:28:37.522Z,100103.00
2019-03-08T14:31:31.879Z,100108.00
2019-03-08T14:34:16.573Z,100105.00
2019-03-08T14:36:44.544Z,100119.00
2019-03-08T14:39:16.200Z,100122.00
2019-03-08T14:41:54.032Z,100133.00
2019-03-08T14:44:43.463Z,100151.00
2019-03-08T14:47:29.472Z,100136.00
2019-03-08T14:50:02.429Z,100138.00
2019-03-08T14:52:34.348Z,100146.00
2019-03-08T14:55:07.969Z,100175.00
2019-03-08T14:57:55.298Z,100167.00
2019-03-08T15:00:29.110Z,100147.00
2019-03-08T15:02:59.252Z,100166.00
2019-03-08T15:05:33.084Z,100172.00
2019-03-08T15:08:04.700Z,100161.00
2019-03-08T15:10:39.616Z,100173.00
2019-03-08T15:13:09.769Z,100183.00
2019-03-08T15:15:41.363Z,100186.00
2019-03-08T15:18:17.608Z,100183.00
2019-03-08T15:20:51.102Z,100185.00
2019-03-08T15:23:27.501Z,100178.00
2019-03-08T15:26:05.100Z,100186.00
2019-03-08T15:28:37.768Z,100194.00
2019-03-08T15:31:11.924Z,100188.00
2019-03-08T15:33:43.544Z,100187.00
2019-03-08T15:36:15.008Z,100184.00
2019-03-08T15:38:58.203Z,100187.00
2019-03-08T15:41:26.505Z,100191.00
2019-03-08T15:43:58.586Z,100204.00
2019-03-08T15:46:30.302Z,100217.00
2019-03-08T15:49:03.097Z,100192.00
2019-03-08T15:51:34.647Z,100196.00
2019-03-08T15:54:06.220Z,100201.00
2019-03-08T15:56:37.697Z,100199.00
2019-03-08T15:59:09.559Z,100192.00
2019-03-08T16:01:41.093Z,100207.00
2019-03-08T16:04:13.072Z,100210.00
2019-03-08T16:06:45.469Z,100195.00
2019-03-08T16:09:17.087Z,100206.00
2019-03-08T16:12:07.778Z,100208.00
2019-03-08T16:14:39.623Z,100201.00
2019-03-08T16:17:12.689Z,100218.00
2019-03-08T16:19:44.590Z,100207.00
2019-03-08T16:22:16.441Z,100223.00
2019-03-08T16:24:48.141Z,100224.00
2019-03-08T16:27:23.111Z,100225.00
2019-03-08T16:29:56.627Z,100227.00
2019-03-08T16:32:38.298Z,100225.00
2019-03-08T16:35:10.305Z,100227.00
2019-03-08T16:38:00.969Z,100247.00
2019-03-08T16:41:02.667Z,100239.00
2019-03-08T16:43:55.569Z,100234.00
2019-03-08T16:46:43.730Z,100243.00
2019-03-08T16:49:34.554Z,100232.00
2019-03-08T16:52:19.797Z,100237.00
2019-03-08T16:55:18.328Z,100230.00
2019-03-08T16:58:11.028Z,100237.00
2019-03-08T17:01:12.451Z,100233.00
2019-03-08T17:04:12.501Z,100236.00
2019-03-08T17:06:53.403Z,100239.00
2019-03-08T17:09:38.622Z,100246.00
2019-03-08T17:12:32.210Z,100236.00
2019-03-08T17:15:13.914Z,100233.00
2019-03-08T17:18:09.319Z,100231.00
2019-03-08T17:20:58.652Z,100237.00
2019-03-08T17:23:52.076Z,100229.00
2019-03-08T17:26:31.997Z,100230.00
2019-03-08T17:29:15.319Z,100223.00
2019-03-08T17:32:06.203Z,100237.00
2019-03-08T17:34:52.999Z,100229.00
2019-03-08T17:37:37.175Z,100231.00
2019-03-08T17:40:15.070Z,100232.00
2019-03-08T17:43:17.160Z,100228.00
2019-03-08T17:45:54.631Z,100244.00
2019-03-08T17:48:43.914Z,100242.00
2019-03-08T17:51:37.466Z,100239.00
2019-03-08T17:54:40.076Z,100254.00
2019-03-08T17:57:42.837Z,100243.00
2019-03-08T18:00:33.973Z,100259.00
2019-03-08T18:03:25.340Z,100254.00
2019-03-08T18:06:03.677Z,100257.00
2019-03-08T18:09:00.427Z,100256.00
2019-03-08T18:11:58.273Z,100248.00
2019-03-08T18:14:54.671Z,100249.00
2019-03-08T18:17:36.682Z,100247.00
2019-03-08T18:20:16.334Z,100257.00
2019-03-08T18:23:09.505Z,100258.00
2019-03-08T18:25:53.329Z,100250.00
2019-03-08T18:28:41.623Z,100256.00
2019-03-08T18:31:36.766Z,100236.00
2019-03-08T18:34:36.633Z,100253.00
2019-03-08T18:37:25.814Z,100247.00
2019-03-08T18:40:15.107Z,100252.00
2019-03-08T18:42:56.636Z,100246.00
2019-03-08T18:45:50.042Z,100240.00
2019-03-08T18:48:27.797Z,100241.00
2019-03-08T18:51:21.667Z,100236.00
2019-03-08T18:54:07.540Z,100239.00
2019-03-08T18:57:04.490Z,100240.00
2019-03-08T18:59:46.834Z,100246.00
2019-03-08T19:02:36.052Z,100242.00
2019-03-08T19:05:27.745Z,100234.00
2019-03-08T19:08:30.332Z,100244.00
2019-03-08T19:11:11.957Z,100241.00
2019-03-08T19:14:05.446Z,100241.00
2019-03-08T19:16:51.033Z,100252.00
2019-03-08T19:19:40.197Z,100240.00
2019-03-08T19:22:44.823Z,100234.00
2019-03-08T19:25:38.117Z,100231.00
2019-03-08T19:28:37.747Z,100228.00
2019-03-08T19:31:28.672Z,100225.00
2019-03-08T19:34:28.340Z,100225.00
2019-03-08T19:37:33.986Z,100224.00
2019-03-08T19:40:22.493Z,100222.00
2019-03-08T19:43:15.840Z,100227.00
2019-03-08T19:46:05.246Z,100222.00
2019-03-08T19:49:04.266Z,100211.00
2019-03-08T19:51:54.819Z,100214.00
2019-03-08T19:54:48.337Z,100209.00
2019-03-08T19:57:37.993Z,100219.00
2019-03-08T20:00:37.468Z,100207.00
2019-03-08T20:03:26.638Z,100202.00
2019-03-08T20:06:03.051Z,100204.00
2019-03-08T20:08:52.413Z,100202.00
2019-03-08T20:11:37.500Z,100193.00
2019-03-08T20:14:30.877Z,100198.00
2019-03-08T20:17:21.510Z,100195.00
2019-03-08T20:20:12.108Z,100185.00
2019-03-08T20:23:11.862Z,100191.00
2019-03-08T20:25:52.406Z,100183.00
2019-03-08T20:28:41.863Z,100178.00
2019-03-08T20:31:27.052Z,100181.00
2019-03-08T20:34:15.159Z,100176.00
2019-03-08T20:37:15.341Z,100172.00
2019-03-08T20:40:03.600Z,100171.00
2019-03-08T20:42:55.319Z,100172.00
2019-03-08T20:45:38.162Z,100162.00
2019-03-08T20:48:09.914Z,100165.00
2019-03-08T20:50:44.029Z,100157.00
2019-03-08T20:53:15.649Z,100152.00
2019-03-08T20:55:48.157Z,100157.00
2019-03-08T20:58:19.920Z,100149.00
2019-03-08T21:00:51.642Z,100141.00
2019-03-08T21:03:23.770Z,100144.00
2019-03-08T21:05:56.378Z,100146.00
2019-03-08T21:08:28.073Z,100146.00
2019-03-08T21:10:59.977Z,100140.00
2019-03-08T21:13:31.784Z,100135.00
2019-03-08T21:16:03.466Z,100127.00
2019-03-08T21:18:35.142Z,100128.00
2019-03-08T21:21:06.755Z,100122.00
2019-03-08T21:23:38.469Z,100119.00
2019-03-08T21:26:10.144Z,100114.00
2019-03-08T21:28:42.278Z,100111.00
2019-03-08T21:31:13.906Z,100114.00
2019-03-08T21:33:45.522Z,100108.00
2019-03-08T21:36:17.269Z,100098.00
2019-03-08T21:38:48.952Z,100100.00
2019-03-08T21:41:20.741Z,100097.00
2019-03-08T21:43:52.690Z,100096.00
2019-03-08T21:46:24.749Z,100096.00
2019-03-08T21:48:56.638Z,100083.00
2019-03-08T21:51:30.164Z,100091.00
2019-03-08T21:54:01.947Z,100086.00
2019-03-08T21:56:34.862Z,100078.00
2019-03-08T21:59:06.757Z,100077.00
2019-03-08T22:01:38.664Z,100075.00
2019-03-08T22:04:27.907Z,100067.00
2019-03-08T22:07:02.505Z,100068.00
2019-03-08T22:09:48.613Z,100059.00
2019-03-08T22:12:21.756Z,100051.00
2019-03-08T22:14:53.213Z,100054.00
2019-03-08T22:17:24.940Z,100045.00
2019-03-08T22:19:56.614Z,100043.00
2019-03-08T22:22:28.285Z,100038.00
2019-03-08T22:25:00.186Z,100036.00
2019-03-08T22:27:32.029Z,100034.00
2019-03-08T22:30:09.689Z,100031.00
2019-03-08T22:32:41.551Z,100009.00
2019-03-08T22:35:13.279Z,100004.00
2019-03-08T22:37:44.772Z,99996.00
2019-03-08T22:40:16.762Z,99992.00
2019-03-08T22:42:49.825Z,99985.00
2019-03-08T22:45:23.314Z,99981.00
2019-03-08T22:47:55.208Z,99977.00
2019-03-08T22:50:26.908Z,99979.00
2019-03-08T22:52:58.906Z,99977.00
2019-03-08T22:55:30.682Z,99954.00
2019-03-08T22:58:02.306Z,99960.00
2019-03-08T23:01:00.991Z,99968.00
2019-03-08T23:03:34.325Z,99955.00
2019-03-08T23:06:07.848Z,99960.00
2019-03-08T23:08:39.903Z,99952.00
2019-03-08T23:11:11.974Z,99945.00
2019-03-08T23:13:44.005Z,99948.00
2019-03-08T23:16:16.009Z,99946.00
2019-03-08T23:18:47.850Z,99942.00
2019-03-08T23:21:19.806Z,99935.00
2019-03-08T23:23:51.460Z,99911.00
2019-03-08T23:26:23.236Z,99926.00
2019-03-08T23:29:06.421Z,99929.00
2019-03-08T23:31:41.643Z,99935.00
2019-03-08T23:34:13.461Z,99913.00
2019-03-08T23:36:44.976Z,99920.00
2019-03-08T23:39:16.904Z,99923.00
2019-03-08T23:41:50.281Z,99921.00
2019-03-08T23:44:21.941Z,99923.00
2019-03-08T23:46:53.637Z,99918.00
2019-03-08T23:49:29.041Z,99917.00
2019-03-08T23:52:01.163Z,99912.00
2019-03-08T23:54:33.602Z,99904.00
2019-03-08T23:57:05.630Z,99899.00
2019-03-08T23:59:37.418Z,99898.00
